Weather at Antique Acres Airpark

Public forecast

Using degrees Fahrenheit for public forecast. Weather courtesy of forecast.io.

Closest aviation weather report (METAR) to Antique Acres Airpark

Closest report is Clermont County Airport, 10.9 nm (20.3 km) SSW. Retrieved 2021/06/13 18:35 UTC (0 seconds ago):

KI69 131835Z AUTO 29008KT 10SM SCT044 BKN060 BKN075 31/22 A2989 RMK AO2 T03140224

Closest aviation forecast (TAF) to Antique Acres Airpark

Closest forecast is Cincinnati Municipal Airport Lunken Field, 16.9 nm (31.3 km) WSW. Retrieved 2021/06/13 18:45 UTC (0 seconds ago):

TAF KLUK 131742Z 1318/1418 33008KT P6SM SCT060 TEMPO 1318/1320 3SM -TSRA BKN040CB FM140100 VRB02KT P6SM SKC FM141400 26006KT P6SM SCT080